Time;durP1;ratioP1;P1;durP2;ratioP2;P2;SDS_P1;SDS_P2;PMS_P1;PMS_P2;Temp;Humidity;BMP_temperature;BMP_pressure;BME280_temperature;BME280_humidity;BME280_pressure;Samples;Min_cycle;Max_cycle;Signal;HPM_P1;HPM_P2
2020/12/12 00:00:50;;;;;;;29.80;20.07;;;;;;;;;;2088801;28;20199;-60
2020/12/12 00:01:50;;;;;;;26.97;20.23;;;;;;;;;;2088687;28;20172;-57
2020/12/12 00:02:50;;;;;;;27.67;20.03;;;;;;;;;;2089043;28;20187;-58
2020/12/12 00:03:50;;;;;;;27.27;19.43;;;;;;;;;;2087155;28;20179;-56
2020/12/12 00:04:51;;;;;;;27.10;19.13;;;;;;;;;;2087980;28;20171;-60
2020/12/12 00:05:51;;;;;;;29.03;21.83;;;;;;;;;;2090504;28;20195;-58
2020/12/12 00:06:51;;;;;;;28.27;21.03;;;;;;;;;;2082637;28;20188;-57
2020/12/12 00:07:51;;;;;;;30.27;21.53;;;;;;;;;;2083204;28;20199;-58
2020/12/12 00:08:52;;;;;;;30.23;21.60;;;;;;;;;;2088798;28;20255;-56
2020/12/12 00:09:52;;;;;;;26.33;20.03;;;;;;;;;;2091503;28;20191;-55
2020/12/12 00:10:52;;;;;;;28.60;20.17;;;;;;;;;;2090408;28;20613;-55
2020/12/12 00:11:52;;;;;;;24.47;19.17;;;;;;;;;;2080529;28;20699;-57
2020/12/12 00:12:53;;;;;;;29.37;21.50;;;;;;;;;;2082583;28;20199;-58
2020/12/12 00:13:53;;;;;;;29.40;20.53;;;;;;;;;;2088948;28;20788;-58
2020/12/12 00:14:53;;;;;;;26.57;19.47;;;;;;;;;;2087759;28;20629;-57
2020/12/12 00:15:53;;;;;;;28.13;20.63;;;;;;;;;;2091770;28;20185;-57
2020/12/12 00:16:54;;;;;;;28.07;20.17;;;;;;;;;;2091878;28;20579;-57
2020/12/12 00:17:54;;;;;;;28.47;20.40;;;;;;;;;;2081311;28;20184;-59
2020/12/12 00:18:54;;;;;;;29.27;20.10;;;;;;;;;;2080176;28;20192;-58
2020/12/12 00:19:54;;;;;;;28.90;20.10;;;;;;;;;;2078540;28;20215;-57
2020/12/12 00:20:55;;;;;;;29.07;20.17;;;;;;;;;;2081271;28;20283;-57
2020/12/12 00:21:55;;;;;;;26.80;19.73;;;;;;;;;;2090608;28;20210;-55
2020/12/12 00:22:55;;;;;;;27.00;19.27;;;;;;;;;;2081128;28;20218;-57
2020/12/12 00:23:56;;;;;;;30.17;20.87;;;;;;;;;;2081353;28;20259;-54
2020/12/12 00:24:56;;;;;;;28.20;19.77;;;;;;;;;;2088928;28;20262;-59
2020/12/12 00:25:56;;;;;;;28.43;21.27;;;;;;;;;;2083868;28;20593;-59
2020/12/12 00:26:57;;;;;;;27.00;20.83;;;;;;;;;;2087534;28;20188;-59
2020/12/12 00:27:57;;;;;;;27.80;19.63;;;;;;;;;;2088065;28;20671;-56
2020/12/12 00:28:57;;;;;;;28.03;20.87;;;;;;;;;;2087803;28;20179;-57
2020/12/12 00:29:57;;;;;;;27.37;20.80;;;;;;;;;;2090122;28;20199;-58
2020/12/12 00:30:58;;;;;;;30.30;20.27;;;;;;;;;;2090331;28;20204;-58
2020/12/12 00:31:59;;;;;;;28.20;20.57;;;;;;;;;;2087611;28;20172;-54
2020/12/12 00:32:59;;;;;;;28.23;20.10;;;;;;;;;;2084968;28;20184;-55
2020/12/12 00:33:59;;;;;;;28.50;20.13;;;;;;;;;;2087933;28;20184;-58
2020/12/12 00:34:59;;;;;;;27.93;20.87;;;;;;;;;;2090538;28;20191;-56
2020/12/12 00:36:00;;;;;;;27.93;20.53;;;;;;;;;;2086215;28;20593;-57
2020/12/12 00:37:00;;;;;;;26.40;19.13;;;;;;;;;;2087334;28;20195;-59
2020/12/12 00:38:00;;;;;;;25.83;19.90;;;;;;;;;;2090436;28;20183;-57
2020/12/12 00:39:01;;;;;;;28.60;19.97;;;;;;;;;;2089032;28;20237;-56
2020/12/12 00:40:01;;;;;;;28.47;19.63;;;;;;;;;;2089992;28;20518;-57
2020/12/12 00:41:02;;;;;;;31.23;21.93;;;;;;;;;;2081725;28;20216;-61
2020/12/12 00:42:02;;;;;;;27.63;20.63;;;;;;;;;;2081249;28;20223;-56
2020/12/12 00:43:02;;;;;;;29.43;20.00;;;;;;;;;;2078972;28;20684;-55
2020/12/12 00:44:03;;;;;;;28.70;19.70;;;;;;;;;;2071399;28;20181;-55
2020/12/12 00:45:03;;;;;;;27.03;19.97;;;;;;;;;;2080440;28;20165;-57
2020/12/12 00:46:04;;;;;;;28.07;20.00;;;;;;;;;;2090823;28;20178;-56
2020/12/12 00:47:05;;;;;;;29.27;21.57;;;;;;;;;;2081389;28;20183;-54
2020/12/12 00:48:05;;;;;;;30.27;20.77;;;;;;;;;;2069893;28;20200;-59
2020/12/12 00:49:06;;;;;;;31.63;21.37;;;;;;;;;;2081721;28;20200;-57
2020/12/12 00:50:07;;;;;;;29.93;21.60;;;;;;;;;;2072697;28;20191;-58
2020/12/12 00:51:07;;;;;;;28.37;20.70;;;;;;;;;;2081747;28;20566;-56
2020/12/12 00:52:07;;;;;;;29.03;20.13;;;;;;;;;;2090517;28;20226;-57
2020/12/12 00:53:08;;;;;;;31.97;20.90;;;;;;;;;;2080972;28;20998;-57
2020/12/12 00:54:08;;;;;;;28.07;19.97;;;;;;;;;;2073350;28;20192;-56
2020/12/12 00:55:09;;;;;;;29.13;19.97;;;;;;;;;;2081542;28;20184;-55
2020/12/12 00:56:09;;;;;;;27.77;19.60;;;;;;;;;;2080705;28;20640;-55
2020/12/12 00:57:10;;;;;;;29.77;21.33;;;;;;;;;;2078694;28;20381;-56
2020/12/12 00:58:10;;;;;;;29.73;20.70;;;;;;;;;;2088973;28;20604;-57
2020/12/12 00:59:10;;;;;;;28.87;20.30;;;;;;;;;;2090044;28;20180;-57
2020/12/12 01:00:11;;;;;;;28.60;20.07;;;;;;;;;;2088672;28;20281;-55
2020/12/12 01:01:12;;;;;;;27.90;19.57;;;;;;;;;;2072871;28;20188;-56
2020/12/12 01:02:12;;;;;;;30.67;21.77;;;;;;;;;;2072815;28;20216;-56
2020/12/12 01:03:12;;;;;;;29.90;22.13;;;;;;;;;;2085524;28;21085;-59
2020/12/12 01:04:13;;;;;;;28.73;21.20;;;;;;;;;;2088097;28;20192;-59
2020/12/12 01:05:13;;;;;;;29.83;21.50;;;;;;;;;;2086697;28;20176;-59
2020/12/12 01:06:14;;;;;;;30.10;21.00;;;;;;;;;;2081383;28;20650;-58
2020/12/12 01:07:15;;;;;;;30.20;22.03;;;;;;;;;;2080867;28;20176;-58
2020/12/12 01:08:15;;;;;;;30.10;21.60;;;;;;;;;;2088632;28;20182;-56
2020/12/12 01:09:15;;;;;;;33.40;21.47;;;;;;;;;;2086723;28;20207;-58
2020/12/12 01:10:15;;;;;;;34.60;22.83;;;;;;;;;;2080997;28;20177;-57
2020/12/12 01:11:17;;;;;;;31.03;21.90;;;;;;;;;;2080030;28;20261;-57
2020/12/12 01:12:18;;;;;;;31.13;20.57;;;;;;;;;;2090475;28;20229;-55
2020/12/12 01:13:18;;;;;;;30.97;19.63;;;;;;;;;;2089375;28;20225;-58
2020/12/12 01:14:18;;;;;;;32.13;21.17;;;;;;;;;;2089606;28;20189;-56
2020/12/12 01:15:19;;;;;;;30.37;21.30;;;;;;;;;;2089630;28;20666;-58
2020/12/12 01:16:19;;;;;;;31.13;21.27;;;;;;;;;;2089942;28;20679;-59
2020/12/12 01:17:20;;;;;;;32.17;21.90;;;;;;;;;;2086542;28;20180;-57
2020/12/12 01:18:20;;;;;;;32.73;22.63;;;;;;;;;;2087837;28;20262;-57
2020/12/12 01:19:20;;;;;;;33.03;22.17;;;;;;;;;;2089141;28;20175;-57
2020/12/12 01:20:21;;;;;;;30.27;21.73;;;;;;;;;;2089289;28;20298;-59
2020/12/12 01:21:21;;;;;;;32.63;22.40;;;;;;;;;;2085863;28;20264;-58
2020/12/12 01:22:22;;;;;;;31.43;22.13;;;;;;;;;;2084538;28;20184;-59
2020/12/12 01:23:22;;;;;;;32.00;22.07;;;;;;;;;;2089403;28;20253;-55
2020/12/12 01:24:22;;;;;;;29.90;21.47;;;;;;;;;;2090219;28;20255;-57
2020/12/12 01:25:23;;;;;;;33.90;23.03;;;;;;;;;;2089235;28;20236;-56
2020/12/12 01:26:23;;;;;;;34.53;22.53;;;;;;;;;;2090072;28;20180;-52
2020/12/12 01:27:23;;;;;;;33.03;23.10;;;;;;;;;;2080383;28;20225;-58
2020/12/12 01:28:23;;;;;;;31.23;22.10;;;;;;;;;;2081036;28;20165;-57
2020/12/12 01:29:24;;;;;;;31.87;22.93;;;;;;;;;;2090132;28;20225;-58
2020/12/12 01:30:24;;;;;;;34.10;23.10;;;;;;;;;;2089688;28;20235;-59
2020/12/12 01:31:25;;;;;;;28.40;21.30;;;;;;;;;;2087727;28;20699;-58
2020/12/12 01:32:25;;;;;;;33.13;23.10;;;;;;;;;;2079709;28;20183;-56
2020/12/12 01:33:25;;;;;;;38.57;23.67;;;;;;;;;;2081005;28;20206;-55
2020/12/12 01:34:26;;;;;;;31.33;22.20;;;;;;;;;;2086856;28;20261;-54
2020/12/12 01:35:26;;;;;;;32.83;21.77;;;;;;;;;;2083331;28;20190;-56
2020/12/12 01:36:26;;;;;;;31.17;21.80;;;;;;;;;;2079048;28;20271;-58
2020/12/12 01:37:26;;;;;;;33.77;23.30;;;;;;;;;;2079990;28;20176;-58
2020/12/12 01:38:27;;;;;;;34.23;22.83;;;;;;;;;;2080230;28;20190;-60
2020/12/12 01:39:27;;;;;;;38.10;24.30;;;;;;;;;;2081326;28;20179;-55
2020/12/12 01:40:27;;;;;;;33.50;23.33;;;;;;;;;;2080077;28;20192;-55
2020/12/12 01:41:27;;;;;;;32.43;23.57;;;;;;;;;;2080406;28;20188;-57
2020/12/12 01:42:31;;;;;;;33.33;22.87;;;;;;;;;;2077669;28;20176;-58
2020/12/12 01:43:31;;;;;;;32.87;23.10;;;;;;;;;;2079537;28;20235;-57
2020/12/12 01:44:31;;;;;;;34.67;22.97;;;;;;;;;;2089055;28;20187;-57
2020/12/12 01:45:32;;;;;;;32.23;22.23;;;;;;;;;;2087671;28;20176;-56
2020/12/12 01:46:32;;;;;;;32.23;22.17;;;;;;;;;;2080955;28;20178;-57
2020/12/12 01:47:33;;;;;;;34.53;23.23;;;;;;;;;;2080818;28;20803;-58
2020/12/12 01:48:33;;;;;;;33.93;22.07;;;;;;;;;;2086835;28;20214;-54
2020/12/12 01:49:34;;;;;;;36.43;22.30;;;;;;;;;;2089093;28;20209;-57
2020/12/12 01:50:35;;;;;;;36.43;23.93;;;;;;;;;;2088785;28;20191;-60
2020/12/12 01:51:36;;;;;;;36.53;23.93;;;;;;;;;;2088302;28;20176;-60
2020/12/12 01:52:37;;;;;;;36.40;23.53;;;;;;;;;;2080671;28;20256;-58
2020/12/12 01:53:37;;;;;;;38.67;25.80;;;;;;;;;;2080825;28;20215;-54
2020/12/12 01:54:38;;;;;;;40.93;26.00;;;;;;;;;;2081391;28;20191;-56
2020/12/12 01:55:43;;;;;;;38.43;25.20;;;;;;;;;;2081383;28;20196;-56
2020/12/12 01:56:46;;;;;;;40.37;28.47;;;;;;;;;;2089882;28;20183;-55
2020/12/12 01:57:53;;;;;;;38.73;25.80;;;;;;;;;;2085321;28;20188;-57
2020/12/12 01:58:54;;;;;;;36.73;24.53;;;;;;;;;;2089417;28;20229;-59
2020/12/12 01:59:54;;;;;;;34.90;24.47;;;;;;;;;;2081308;28;20195;-57
2020/12/12 02:00:55;;;;;;;43.63;27.70;;;;;;;;;;2072314;28;20200;-54
2020/12/12 02:01:56;;;;;;;35.90;24.53;;;;;;;;;;2080294;28;20239;-53
2020/12/12 02:02:57;;;;;;;39.07;26.03;;;;;;;;;;2080866;28;20183;-59
2020/12/12 02:03:57;;;;;;;40.20;26.83;;;;;;;;;;2078900;28;20179;-59
2020/12/12 02:04:58;;;;;;;35.60;24.63;;;;;;;;;;2088447;28;20190;-57
2020/12/12 02:06:00;;;;;;;38.60;25.57;;;;;;;;;;2089950;28;20184;-59
2020/12/12 02:07:00;;;;;;;40.60;24.97;;;;;;;;;;2080005;28;20184;-55
2020/12/12 02:08:01;;;;;;;38.87;25.47;;;;;;;;;;2081033;28;20194;-58
2020/12/12 02:09:02;;;;;;;40.83;26.33;;;;;;;;;;2081362;28;20212;-56
2020/12/12 02:10:02;;;;;;;34.27;23.53;;;;;;;;;;2081027;28;20440;-53
2020/12/12 02:11:03;;;;;;;35.30;23.63;;;;;;;;;;2090167;28;20172;-57
2020/12/12 02:12:03;;;;;;;36.37;24.67;;;;;;;;;;2089516;28;20186;-58
2020/12/12 02:13:04;;;;;;;37.60;25.53;;;;;;;;;;2088782;28;20206;-55
2020/12/12 02:14:07;;;;;;;34.87;23.93;;;;;;;;;;2087003;28;20258;-55
2020/12/12 02:15:07;;;;;;;36.40;24.17;;;;;;;;;;2087312;28;20188;-60
2020/12/12 02:16:07;;;;;;;35.50;24.70;;;;;;;;;;2081464;28;20702;-59
2020/12/12 02:17:08;;;;;;;40.77;24.87;;;;;;;;;;2080135;28;20782;-57
2020/12/12 02:18:22;;;;;;;36.57;24.87;;;;;;;;;;2090578;28;20187;-56
2020/12/12 02:19:23;;;;;;;35.60;22.90;;;;;;;;;;2081942;28;20183;-59
2020/12/12 02:20:23;;;;;;;31.87;21.93;;;;;;;;;;2078827;28;20196;-57
2020/12/12 02:21:25;;;;;;;35.80;23.27;;;;;;;;;;2080770;28;20579;-59
2020/12/12 02:22:25;;;;;;;35.97;25.13;;;;;;;;;;2080278;28;20184;-60
2020/12/12 02:23:26;;;;;;;37.40;23.90;;;;;;;;;;2088121;28;20204;-57
2020/12/12 02:24:30;;;;;;;35.00;23.47;;;;;;;;;;2082431;28;20176;-54
2020/12/12 02:25:30;;;;;;;40.07;24.47;;;;;;;;;;2080799;28;20176;-54
2020/12/12 02:26:30;;;;;;;33.43;22.60;;;;;;;;;;2090620;28;20180;-57
2020/12/12 02:27:30;;;;;;;34.23;22.30;;;;;;;;;;2085372;28;20255;-54
2020/12/12 02:28:55;;;;;;;34.50;24.27;;;;;;;;;;2091024;28;20184;-56
2020/12/12 02:29:52;;;;;;;36.03;24.20;;;;;;;;;;2088473;28;20275;-57
2020/12/12 02:30:52;;;;;;;35.27;24.13;;;;;;;;;;2088714;28;20212;-54
2020/12/12 02:31:53;;;;;;;34.27;23.73;;;;;;;;;;2085828;28;20218;-57
2020/12/12 02:32:53;;;;;;;37.50;24.10;;;;;;;;;;2080951;28;20187;-56
2020/12/12 02:33:53;;;;;;;37.63;24.53;;;;;;;;;;2078104;28;20181;-56
2020/12/12 02:34:54;;;;;;;35.50;25.50;;;;;;;;;;2088749;28;20212;-56
2020/12/12 02:35:55;;;;;;;34.03;24.00;;;;;;;;;;2090045;28;20179;-58
2020/12/12 02:36:55;;;;;;;33.37;24.17;;;;;;;;;;2089971;28;20624;-56
2020/12/12 02:37:56;;;;;;;33.47;23.23;;;;;;;;;;2089998;28;20176;-58
2020/12/12 02:38:56;;;;;;;34.63;22.87;;;;;;;;;;2089647;28;20207;-58
2020/12/12 02:39:56;;;;;;;33.30;22.27;;;;;;;;;;2090475;28;20176;-60
2020/12/12 02:40:56;;;;;;;30.93;22.83;;;;;;;;;;2091138;28;20192;-53
2020/12/12 02:41:57;;;;;;;35.27;23.67;;;;;;;;;;2089925;28;20188;-58
2020/12/12 02:42:57;;;;;;;35.00;23.83;;;;;;;;;;2081018;28;20210;-62
2020/12/12 02:43:57;;;;;;;35.83;24.57;;;;;;;;;;2073580;28;20184;-58
2020/12/12 02:44:57;;;;;;;32.97;23.30;;;;;;;;;;2080494;28;20238;-60
2020/12/12 02:45:57;;;;;;;35.50;24.40;;;;;;;;;;2086645;28;20194;-55
2020/12/12 02:46:58;;;;;;;34.77;24.07;;;;;;;;;;2082228;28;20261;-55
2020/12/12 02:47:58;;;;;;;31.83;23.40;;;;;;;;;;2081870;28;20875;-57
2020/12/12 02:48:58;;;;;;;33.83;22.93;;;;;;;;;;2090972;28;20183;-56
2020/12/12 02:50:10;;;;;;;34.73;23.67;;;;;;;;;;2082377;28;20218;-58
2020/12/12 02:51:10;;;;;;;33.77;23.87;;;;;;;;;;2082155;28;20184;-58
2020/12/12 02:52:11;;;;;;;33.57;23.20;;;;;;;;;;2081271;28;20656;-55
2020/12/12 02:53:11;;;;;;;31.53;23.10;;;;;;;;;;2079309;28;20283;-59
2020/12/12 02:54:11;;;;;;;34.27;22.87;;;;;;;;;;2090559;28;20179;-56
2020/12/12 02:55:11;;;;;;;31.70;23.17;;;;;;;;;;2088008;28;20278;-57
2020/12/12 02:56:15;;;;;;;33.00;22.77;;;;;;;;;;2090365;28;20176;-55
2020/12/12 02:57:16;;;;;;;35.43;23.87;;;;;;;;;;2087114;28;20183;-61
2020/12/12 02:58:16;;;;;;;33.63;22.13;;;;;;;;;;2089143;28;20175;-57
2020/12/12 02:59:16;;;;;;;31.50;21.67;;;;;;;;;;2080010;28;20230;-56
2020/12/12 03:00:18;;;;;;;30.17;20.93;;;;;;;;;;2080219;28;20183;-58
2020/12/12 03:01:18;;;;;;;29.50;22.10;;;;;;;;;;2088675;28;20215;-58
2020/12/12 03:02:18;;;;;;;31.43;21.93;;;;;;;;;;2087744;28;20203;-57
2020/12/12 03:03:18;;;;;;;32.40;23.40;;;;;;;;;;2088565;28;20207;-60
2020/12/12 03:04:19;;;;;;;33.83;23.37;;;;;;;;;;2089580;28;20179;-59
2020/12/12 03:05:19;;;;;;;35.33;23.17;;;;;;;;;;2091152;28;20183;-57
2020/12/12 03:06:19;;;;;;;33.93;22.63;;;;;;;;;;2091267;28;20179;-57
2020/12/12 03:07:19;;;;;;;34.77;24.70;;;;;;;;;;2088839;28;20167;-57
2020/12/12 03:08:20;;;;;;;33.33;23.03;;;;;;;;;;2088320;28;20183;-60
2020/12/12 03:09:20;;;;;;;33.70;23.10;;;;;;;;;;2082882;28;20253;-57
2020/12/12 03:10:20;;;;;;;31.80;22.50;;;;;;;;;;2082337;28;20235;-63
2020/12/12 03:11:20;;;;;;;34.57;23.33;;;;;;;;;;2091608;28;20171;-58
2020/12/12 03:12:20;;;;;;;34.10;22.80;;;;;;;;;;2090058;28;20167;-57
2020/12/12 03:13:21;;;;;;;32.40;22.43;;;;;;;;;;2089269;28;20210;-57
2020/12/12 03:14:21;;;;;;;32.33;22.47;;;;;;;;;;2090576;28;20182;-56
2020/12/12 03:15:21;;;;;;;33.50;23.17;;;;;;;;;;2089275;28;20183;-56
2020/12/12 03:16:22;;;;;;;31.50;22.13;;;;;;;;;;2089990;28;20237;-55
2020/12/12 03:17:22;;;;;;;30.27;20.83;;;;;;;;;;2081590;28;20188;-56
2020/12/12 03:18:22;;;;;;;34.00;22.67;;;;;;;;;;2082377;28;20219;-56
2020/12/12 03:19:22;;;;;;;30.50;21.47;;;;;;;;;;2089981;28;20184;-59
2020/12/12 03:20:23;;;;;;;33.40;22.00;;;;;;;;;;2079306;28;21199;-57
2020/12/12 03:21:23;;;;;;;33.63;23.70;;;;;;;;;;2078020;28;20220;-57
2020/12/12 03:22:24;;;;;;;32.27;21.87;;;;;;;;;;2086707;28;20188;-57
2020/12/12 03:23:24;;;;;;;33.57;22.37;;;;;;;;;;2087565;28;20207;-57
2020/12/12 03:24:24;;;;;;;31.07;21.53;;;;;;;;;;2091076;28;20180;-56
2020/12/12 03:25:24;;;;;;;30.80;21.97;;;;;;;;;;2091130;28;20168;-56
2020/12/12 03:26:25;;;;;;;33.43;22.10;;;;;;;;;;2088928;28;20183;-57
2020/12/12 03:27:26;;;;;;;34.40;22.67;;;;;;;;;;2089136;28;20205;-60
2020/12/12 03:28:26;;;;;;;33.47;22.33;;;;;;;;;;2090834;28;20180;-58
2020/12/12 03:29:26;;;;;;;32.47;21.13;;;;;;;;;;2081883;28;20175;-54
2020/12/12 03:30:26;;;;;;;34.13;22.47;;;;;;;;;;2080584;28;20640;-55
2020/12/12 03:31:27;;;;;;;29.57;20.73;;;;;;;;;;2085447;28;20255;-57
2020/12/12 03:32:27;;;;;;;36.10;22.33;;;;;;;;;;2090288;28;20163;-56
2020/12/12 03:33:27;;;;;;;32.83;21.17;;;;;;;;;;2078136;28;20577;-54
2020/12/12 03:34:27;;;;;;;30.70;21.43;;;;;;;;;;2081335;28;20271;-55
2020/12/12 03:35:28;;;;;;;32.10;22.50;;;;;;;;;;2078340;28;20184;-54
2020/12/12 03:36:28;;;;;;;29.47;20.57;;;;;;;;;;2080787;28;20290;-63
2020/12/12 03:37:28;;;;;;;35.40;23.10;;;;;;;;;;2080673;28;20184;-58
2020/12/12 03:38:28;;;;;;;29.27;21.10;;;;;;;;;;2081671;28;20263;-56
2020/12/12 03:39:29;;;;;;;30.50;21.57;;;;;;;;;;2088767;28;20274;-55
2020/12/12 03:40:29;;;;;;;32.53;21.57;;;;;;;;;;2088431;28;20250;-60
2020/12/12 03:41:30;;;;;;;29.50;21.70;;;;;;;;;;2081804;28;20255;-56
2020/12/12 03:42:30;;;;;;;31.77;22.20;;;;;;;;;;2082084;28;20568;-57
2020/12/12 03:43:30;;;;;;;31.77;22.87;;;;;;;;;;2089089;28;20200;-59
2020/12/12 03:44:30;;;;;;;31.53;21.43;;;;;;;;;;2090294;28;20701;-59
2020/12/12 03:45:31;;;;;;;29.03;21.13;;;;;;;;;;2090530;28;20172;-58
2020/12/12 03:46:31;;;;;;;28.43;21.37;;;;;;;;;;2087980;28;20259;-57
2020/12/12 03:47:31;;;;;;;32.30;22.83;;;;;;;;;;2090212;28;20192;-58
2020/12/12 03:48:31;;;;;;;32.13;20.80;;;;;;;;;;2090568;28;20174;-57
2020/12/12 03:49:33;;;;;;;31.37;21.83;;;;;;;;;;2089185;28;20211;-57
2020/12/12 03:50:33;;;;;;;31.40;21.13;;;;;;;;;;2090886;28;20284;-59
2020/12/12 03:51:33;;;;;;;29.60;21.57;;;;;;;;;;2091197;28;20180;-58
2020/12/12 03:52:33;;;;;;;27.90;20.67;;;;;;;;;;2089884;28;20184;-58
2020/12/12 03:53:34;;;;;;;33.23;22.07;;;;;;;;;;2088411;28;20180;-54
2020/12/12 03:54:34;;;;;;;30.77;21.57;;;;;;;;;;2088401;28;20220;-54
2020/12/12 03:55:34;;;;;;;29.70;21.00;;;;;;;;;;2090446;28;20203;-58
2020/12/12 03:56:35;;;;;;;30.10;20.53;;;;;;;;;;2083745;28;20183;-58
2020/12/12 03:57:35;;;;;;;31.20;20.70;;;;;;;;;;2083723;28;20601;-56
2020/12/12 03:58:35;;;;;;;32.80;22.53;;;;;;;;;;2088020;28;20184;-59
2020/12/12 03:59:35;;;;;;;30.13;21.20;;;;;;;;;;2090867;28;20266;-59
2020/12/12 04:00:36;;;;;;;29.63;22.60;;;;;;;;;;2090886;28;20286;-58
2020/12/12 04:01:36;;;;;;;33.20;21.43;;;;;;;;;;2081321;28;20190;-56
2020/12/12 04:02:36;;;;;;;29.17;19.73;;;;;;;;;;2081441;28;20192;-57
2020/12/12 04:03:36;;;;;;;28.87;20.40;;;;;;;;;;2089453;28;20211;-58
2020/12/12 04:04:36;;;;;;;28.80;20.37;;;;;;;;;;2088943;28;20603;-56
2020/12/12 04:05:37;;;;;;;27.03;20.07;;;;;;;;;;2089041;28;20183;-59
2020/12/12 04:06:37;;;;;;;29.40;20.73;;;;;;;;;;2090555;28;20193;-55
2020/12/12 04:08:39;;;;;;;29.47;21.13;;;;;;;;;;2084384;28;20230;-56
2020/12/12 04:09:40;;;;;;;27.77;21.23;;;;;;;;;;2087185;28;20202;-54
2020/12/12 04:10:40;;;;;;;29.47;20.80;;;;;;;;;;2087419;28;20258;-57
2020/12/12 04:11:40;;;;;;;28.70;20.43;;;;;;;;;;2086810;28;20640;-57
2020/12/12 04:12:40;;;;;;;29.07;20.30;;;;;;;;;;2089863;28;20229;-57
2020/12/12 04:13:41;;;;;;;28.67;20.93;;;;;;;;;;2079021;28;20596;-61
2020/12/12 04:14:41;;;;;;;30.87;21.00;;;;;;;;;;2079621;28;20250;-57
2020/12/12 04:15:41;;;;;;;30.50;21.43;;;;;;;;;;2081093;28;20184;-56
2020/12/12 04:16:41;;;;;;;30.93;22.53;;;;;;;;;;2088809;28;20187;-55
2020/12/12 04:17:42;;;;;;;29.07;21.73;;;;;;;;;;2088716;28;20211;-53
2020/12/12 04:18:42;;;;;;;31.30;21.83;;;;;;;;;;2079297;28;20263;-55
2020/12/12 04:19:42;;;;;;;29.70;22.10;;;;;;;;;;2080804;28;20270;-54
2020/12/12 04:20:42;;;;;;;33.83;22.97;;;;;;;;;;2089954;28;20207;-59
2020/12/12 04:21:43;;;;;;;31.80;22.50;;;;;;;;;;2078867;28;20199;-60
2020/12/12 04:22:43;;;;;;;30.73;21.43;;;;;;;;;;2080770;28;20184;-55
2020/12/12 04:23:44;;;;;;;29.63;21.53;;;;;;;;;;2089593;28;20183;-55
2020/12/12 04:24:44;;;;;;;34.03;22.73;;;;;;;;;;2080999;28;20203;-54
2020/12/12 04:25:44;;;;;;;28.97;21.77;;;;;;;;;;2078091;28;20688;-54
2020/12/12 04:26:44;;;;;;;30.60;21.90;;;;;;;;;;2086283;28;20266;-61
2020/12/12 04:27:45;;;;;;;30.17;21.73;;;;;;;;;;2080355;28;20668;-55
2020/12/12 04:28:45;;;;;;;30.53;21.70;;;;;;;;;;2080342;28;20336;-57
2020/12/12 04:29:45;;;;;;;32.73;23.30;;;;;;;;;;2088447;28;20207;-58
2020/12/12 04:30:45;;;;;;;36.53;22.87;;;;;;;;;;2089875;28;20184;-56
2020/12/12 04:31:46;;;;;;;34.27;22.63;;;;;;;;;;2087146;28;20188;-58
2020/12/12 04:32:46;;;;;;;32.23;22.23;;;;;;;;;;2089456;28;20262;-55
2020/12/12 04:33:46;;;;;;;29.93;20.83;;;;;;;;;;2088536;28;20171;-60
2020/12/12 04:34:46;;;;;;;32.93;22.80;;;;;;;;;;2084909;28;20223;-57
2020/12/12 04:35:46;;;;;;;31.27;22.20;;;;;;;;;;2089880;28;20205;-57
2020/12/12 04:36:47;;;;;;;31.70;21.73;;;;;;;;;;2086908;28;20233;-55
2020/12/12 04:37:47;;;;;;;31.80;22.87;;;;;;;;;;2089473;28;20689;-56
2020/12/12 04:38:49;;;;;;;32.30;22.70;;;;;;;;;;2088012;28;20309;-52
2020/12/12 04:39:49;;;;;;;29.57;22.17;;;;;;;;;;2089521;28;20594;-59
2020/12/12 04:40:49;;;;;;;32.77;22.47;;;;;;;;;;2089831;28;20294;-57
2020/12/12 04:41:51;;;;;;;35.53;23.43;;;;;;;;;;2086492;28;20183;-55
2020/12/12 04:42:51;;;;;;;34.23;22.40;;;;;;;;;;2088602;28;20202;-53
2020/12/12 04:43:52;;;;;;;30.60;22.73;;;;;;;;;;2088566;28;20178;-59
2020/12/12 04:44:52;;;;;;;30.97;22.07;;;;;;;;;;2088030;28;20228;-52
2020/12/12 04:45:52;;;;;;;29.80;22.03;;;;;;;;;;2089656;28;20179;-59
2020/12/12 04:46:53;;;;;;;31.93;21.90;;;;;;;;;;2089641;28;20710;-55
2020/12/12 04:47:53;;;;;;;32.73;22.93;;;;;;;;;;2087896;28;20272;-55
2020/12/12 04:48:54;;;;;;;31.33;21.63;;;;;;;;;;2086463;28;20230;-58
2020/12/12 04:49:54;;;;;;;31.70;21.83;;;;;;;;;;2080570;28;20548;-53
2020/12/12 04:50:55;;;;;;;33.17;22.63;;;;;;;;;;2080902;28;20192;-56
2020/12/12 04:51:55;;;;;;;32.57;22.00;;;;;;;;;;2086363;28;20173;-56
2020/12/12 04:53:05;;;;;;;32.50;22.40;;;;;;;;;;2088821;28;20187;-55
2020/12/12 04:54:05;;;;;;;31.77;23.07;;;;;;;;;;2089873;28;20175;-56
2020/12/12 04:55:06;;;;;;;31.83;21.87;;;;;;;;;;2089246;28;20185;-56
2020/12/12 04:56:06;;;;;;;30.13;21.63;;;;;;;;;;2088437;28;20179;-55
2020/12/12 04:57:06;;;;;;;31.40;21.83;;;;;;;;;;2089249;28;20180;-55
2020/12/12 04:58:07;;;;;;;30.70;21.93;;;;;;;;;;2080627;28;20290;-55
2020/12/12 04:59:07;;;;;;;31.50;21.63;;;;;;;;;;2080335;28;20610;-59
2020/12/12 05:00:09;;;;;;;33.30;22.43;;;;;;;;;;2077600;28;20222;-58
2020/12/12 05:01:09;;;;;;;31.77;21.97;;;;;;;;;;2080749;28;20175;-54
2020/12/12 05:02:13;;;;;;;31.97;22.57;;;;;;;;;;2089678;28;20690;-55
2020/12/12 05:03:14;;;;;;;32.47;22.47;;;;;;;;;;2088748;28;20512;-56
2020/12/12 05:04:15;;;;;;;32.20;23.37;;;;;;;;;;2079736;28;20263;-53
2020/12/12 05:05:15;;;;;;;30.27;22.37;;;;;;;;;;2080324;28;20176;-53
2020/12/12 05:06:15;;;;;;;31.83;22.70;;;;;;;;;;2088415;28;20594;-54
2020/12/12 05:07:15;;;;;;;34.50;23.00;;;;;;;;;;2079988;28;20180;-51
2020/12/12 05:08:16;;;;;;;34.83;23.27;;;;;;;;;;2079268;28;20212;-57
2020/12/12 05:09:16;;;;;;;31.43;21.83;;;;;;;;;;2078450;28;20184;-57
2020/12/12 05:10:16;;;;;;;34.23;22.47;;;;;;;;;;2079127;28;20168;-51
2020/12/12 05:11:17;;;;;;;33.53;22.33;;;;;;;;;;2080760;28;20206;-56
2020/12/12 05:12:18;;;;;;;33.53;22.60;;;;;;;;;;2089439;28;20263;-56
2020/12/12 05:13:22;;;;;;;33.83;22.73;;;;;;;;;;2085459;28;20199;-56
2020/12/12 05:14:23;;;;;;;32.83;22.63;;;;;;;;;;2087407;28;20659;-54
2020/12/12 05:15:24;;;;;;;32.83;21.80;;;;;;;;;;2089373;28;20176;-54
2020/12/12 05:16:24;;;;;;;34.23;23.17;;;;;;;;;;2089219;28;20658;-57
2020/12/12 05:17:24;;;;;;;30.90;22.07;;;;;;;;;;2080045;28;20884;-57
2020/12/12 05:18:25;;;;;;;34.47;22.77;;;;;;;;;;2079376;28;20743;-55
2020/12/12 05:19:25;;;;;;;32.53;22.60;;;;;;;;;;2089876;28;20182;-55
2020/12/12 05:20:25;;;;;;;35.47;22.43;;;;;;;;;;2087660;28;20267;-54
2020/12/12 05:21:26;;;;;;;37.40;23.47;;;;;;;;;;2088133;28;20705;-55
2020/12/12 05:22:26;;;;;;;32.53;22.60;;;;;;;;;;2080785;28;20218;-59
2020/12/12 05:23:26;;;;;;;30.50;22.33;;;;;;;;;;2078811;28;20266;-56
2020/12/12 05:24:26;;;;;;;31.47;22.73;;;;;;;;;;2087741;28;20193;-58
2020/12/12 05:25:27;;;;;;;29.67;22.73;;;;;;;;;;2088399;28;20564;-57
2020/12/12 05:26:29;;;;;;;31.07;22.30;;;;;;;;;;2088984;28;20175;-52
2020/12/12 05:27:30;;;;;;;31.43;21.93;;;;;;;;;;2086277;28;20552;-56
2020/12/12 05:28:30;;;;;;;32.40;22.37;;;;;;;;;;2088240;28;20191;-55
2020/12/12 05:29:30;;;;;;;30.50;22.27;;;;;;;;;;2072315;28;20769;-60
2020/12/12 05:30:32;;;;;;;31.20;22.60;;;;;;;;;;2072532;28;20193;-55
2020/12/12 05:31:32;;;;;;;31.10;22.80;;;;;;;;;;2085731;28;20271;-56
2020/12/12 05:32:34;;;;;;;33.27;22.20;;;;;;;;;;2087354;28;20164;-54
2020/12/12 05:33:34;;;;;;;33.37;21.83;;;;;;;;;;2089274;28;20270;-58
2020/12/12 05:34:34;;;;;;;30.83;22.17;;;;;;;;;;2087408;28;20305;-55
2020/12/12 05:35:35;;;;;;;31.63;21.87;;;;;;;;;;2088473;28;20207;-59
2020/12/12 05:36:35;;;;;;;31.10;21.43;;;;;;;;;;2080182;28;20267;-58
2020/12/12 05:37:39;;;;;;;30.70;22.10;;;;;;;;;;2079939;28;20175;-56
2020/12/12 05:38:39;;;;;;;32.03;21.87;;;;;;;;;;2086415;28;20571;-58
2020/12/12 05:39:39;;;;;;;31.93;21.47;;;;;;;;;;2089267;28;20179;-59
2020/12/12 05:40:41;;;;;;;33.20;23.53;;;;;;;;;;2089329;28;20188;-59
2020/12/12 05:41:41;;;;;;;34.83;23.00;;;;;;;;;;2087126;28;20607;-58
2020/12/12 05:42:42;;;;;;;32.80;22.80;;;;;;;;;;2080169;28;20188;-60
2020/12/12 05:43:42;;;;;;;35.00;22.53;;;;;;;;;;2080154;28;20216;-57
2020/12/12 05:44:42;;;;;;;29.13;21.73;;;;;;;;;;2084798;28;20206;-58
2020/12/12 05:45:43;;;;;;;31.80;22.33;;;;;;;;;;2089177;28;20172;-54
2020/12/12 05:46:43;;;;;;;31.23;21.60;;;;;;;;;;2080311;28;20184;-56
2020/12/12 05:47:43;;;;;;;33.80;22.63;;;;;;;;;;2069972;28;20242;-58
2020/12/12 05:48:44;;;;;;;33.40;22.77;;;;;;;;;;2077897;28;20259;-55
2020/12/12 05:49:47;;;;;;;32.00;22.53;;;;;;;;;;2086787;28;20221;-55
2020/12/12 05:50:47;;;;;;;32.93;22.33;;;;;;;;;;2079219;28;20191;-55
2020/12/12 05:51:51;;;;;;;33.03;22.53;;;;;;;;;;2080459;28;20172;-55
2020/12/12 05:52:53;;;;;;;34.47;23.43;;;;;;;;;;2089174;28;20363;-55
2020/12/12 05:53:53;;;;;;;34.33;23.43;;;;;;;;;;2088994;28;20198;-55